sensor_id;sensor_type;location;lat;lon;timestamp;temperature;humidity
3699;DHT22;1865;50.918;7.092;2023-03-11T00:01:30;6.50;51.50
3699;DHT22;1865;50.918;7.092;2023-03-11T00:03:56;6.30;51.20
3699;DHT22;1865;50.918;7.092;2023-03-11T00:06:22;6.40;50.60
3699;DHT22;1865;50.918;7.092;2023-03-11T00:08:48;6.20;50.10
3699;DHT22;1865;50.918;7.092;2023-03-11T00:11:14;6.00;50.40
3699;DHT22;1865;50.918;7.092;2023-03-11T00:13:39;6.20;50.70
3699;DHT22;1865;50.918;7.092;2023-03-11T00:16:05;6.20;51.30
3699;DHT22;1865;50.918;7.092;2023-03-11T00:18:31;6.20;51.00
3699;DHT22;1865;50.918;7.092;2023-03-11T00:20:57;6.40;50.70
3699;DHT22;1865;50.918;7.092;2023-03-11T00:23:24;6.40;50.60
3699;DHT22;1865;50.918;7.092;2023-03-11T00:25:51;6.50;50.60
3699;DHT22;1865;50.918;7.092;2023-03-11T00:28:17;6.60;49.70
3699;DHT22;1865;50.918;7.092;2023-03-11T00:30:44;6.50;49.70
3699;DHT22;1865;50.918;7.092;2023-03-11T00:33:11;6.40;50.20
3699;DHT22;1865;50.918;7.092;2023-03-11T00:35:37;6.40;50.80
3699;DHT22;1865;50.918;7.092;2023-03-11T00:38:05;6.30;50.60
3699;DHT22;1865;50.918;7.092;2023-03-11T00:40:32;6.40;50.40
3699;DHT22;1865;50.918;7.092;2023-03-11T00:42:59;6.40;50.20
3699;DHT22;1865;50.918;7.092;2023-03-11T00:45:25;6.40;50.30
3699;DHT22;1865;50.918;7.092;2023-03-11T00:47:51;6.30;50.60
3699;DHT22;1865;50.918;7.092;2023-03-11T00:50:23;6.30;50.30
3699;DHT22;1865;50.918;7.092;2023-03-11T00:52:49;6.10;51.00
3699;DHT22;1865;50.918;7.092;2023-03-11T00:55:21;6.30;51.60
3699;DHT22;1865;50.918;7.092;2023-03-11T00:57:50;6.40;50.40
3699;DHT22;1865;50.918;7.092;2023-03-11T01:00:19;6.30;50.90
3699;DHT22;1865;50.918;7.092;2023-03-11T01:02:45;6.40;50.90
3699;DHT22;1865;50.918;7.092;2023-03-11T01:05:12;6.40;50.10
3699;DHT22;1865;50.918;7.092;2023-03-11T01:07:38;6.50;50.50
3699;DHT22;1865;50.918;7.092;2023-03-11T01:10:05;6.60;50.40
3699;DHT22;1865;50.918;7.092;2023-03-11T01:12:31;6.60;50.40
3699;DHT22;1865;50.918;7.092;2023-03-11T01:14:56;6.70;50.30
3699;DHT22;1865;50.918;7.092;2023-03-11T01:17:22;6.70;49.80
3699;DHT22;1865;50.918;7.092;2023-03-11T01:19:48;6.60;50.50
3699;DHT22;1865;50.918;7.092;2023-03-11T01:22:14;6.60;50.20
3699;DHT22;1865;50.918;7.092;2023-03-11T01:24:40;6.60;50.30
3699;DHT22;1865;50.918;7.092;2023-03-11T01:27:05;6.60;50.20
3699;DHT22;1865;50.918;7.092;2023-03-11T01:29:31;6.50;50.10
3699;DHT22;1865;50.918;7.092;2023-03-11T01:31:56;6.60;50.20
3699;DHT22;1865;50.918;7.092;2023-03-11T01:34:23;6.70;50.30
3699;DHT22;1865;50.918;7.092;2023-03-11T01:36:49;6.80;49.80
3699;DHT22;1865;50.918;7.092;2023-03-11T01:39:14;6.70;49.90
3699;DHT22;1865;50.918;7.092;2023-03-11T01:41:40;6.70;50.40
3699;DHT22;1865;50.918;7.092;2023-03-11T01:44:06;6.80;49.40
3699;DHT22;1865;50.918;7.092;2023-03-11T01:49:16;6.80;49.70
3699;DHT22;1865;50.918;7.092;2023-03-11T01:51:43;6.80;49.70
3699;DHT22;1865;50.918;7.092;2023-03-11T01:54:17;6.80;49.30
3699;DHT22;1865;50.918;7.092;2023-03-11T01:56:45;6.90;49.60
3699;DHT22;1865;50.918;7.092;2023-03-11T01:59:15;6.80;48.80
3699;DHT22;1865;50.918;7.092;2023-03-11T02:01:48;6.80;49.40
3699;DHT22;1865;50.918;7.092;2023-03-11T02:04:17;6.80;48.90
3699;DHT22;1865;50.918;7.092;2023-03-11T02:06:42;6.80;48.90
3699;DHT22;1865;50.918;7.092;2023-03-11T02:09:08;6.90;49.10
3699;DHT22;1865;50.918;7.092;2023-03-11T02:11:34;6.80;49.00
3699;DHT22;1865;50.918;7.092;2023-03-11T02:14:02;6.70;49.80
3699;DHT22;1865;50.918;7.092;2023-03-11T02:16:29;6.80;49.80
3699;DHT22;1865;50.918;7.092;2023-03-11T02:18:56;7.00;49.20
3699;DHT22;1865;50.918;7.092;2023-03-11T02:21:29;6.90;48.50
3699;DHT22;1865;50.918;7.092;2023-03-11T02:24:09;6.90;49.10
3699;DHT22;1865;50.918;7.092;2023-03-11T02:29:09;6.90;48.80
3699;DHT22;1865;50.918;7.092;2023-03-11T02:31:39;6.80;48.90
3699;DHT22;1865;50.918;7.092;2023-03-11T02:34:07;6.90;49.20
3699;DHT22;1865;50.918;7.092;2023-03-11T02:36:35;6.80;49.00
3699;DHT22;1865;50.918;7.092;2023-03-11T02:39:02;6.90;48.60
3699;DHT22;1865;50.918;7.092;2023-03-11T02:41:29;7.00;48.60
3699;DHT22;1865;50.918;7.092;2023-03-11T02:43:56;6.90;48.10
3699;DHT22;1865;50.918;7.092;2023-03-11T02:46:22;7.00;48.60
3699;DHT22;1865;50.918;7.092;2023-03-11T02:48:48;6.90;47.60
3699;DHT22;1865;50.918;7.092;2023-03-11T02:51:15;6.90;47.50
3699;DHT22;1865;50.918;7.092;2023-03-11T02:53:45;6.80;47.90
3699;DHT22;1865;50.918;7.092;2023-03-11T02:56:11;6.80;47.70
3699;DHT22;1865;50.918;7.092;2023-03-11T02:58:37;6.90;48.20
3699;DHT22;1865;50.918;7.092;2023-03-11T03:01:03;6.90;47.20
3699;DHT22;1865;50.918;7.092;2023-03-11T03:03:29;6.80;47.30
3699;DHT22;1865;50.918;7.092;2023-03-11T03:05:54;6.80;47.00
3699;DHT22;1865;50.918;7.092;2023-03-11T03:08:20;6.90;46.70
3699;DHT22;1865;50.918;7.092;2023-03-11T03:10:45;6.80;46.30
3699;DHT22;1865;50.918;7.092;2023-03-11T03:13:11;6.90;46.70
3699;DHT22;1865;50.918;7.092;2023-03-11T03:15:37;6.80;46.60
3699;DHT22;1865;50.918;7.092;2023-03-11T03:18:03;6.90;46.40
3699;DHT22;1865;50.918;7.092;2023-03-11T03:20:28;6.90;45.50
3699;DHT22;1865;50.918;7.092;2023-03-11T03:22:54;6.80;46.50
3699;DHT22;1865;50.918;7.092;2023-03-11T03:25:20;6.80;45.50
3699;DHT22;1865;50.918;7.092;2023-03-11T03:27:46;6.70;45.00
3699;DHT22;1865;50.918;7.092;2023-03-11T03:30:12;6.60;45.20
3699;DHT22;1865;50.918;7.092;2023-03-11T03:32:38;6.50;45.40
3699;DHT22;1865;50.918;7.092;2023-03-11T03:35:04;6.50;45.00
3699;DHT22;1865;50.918;7.092;2023-03-11T03:37:32;6.40;45.10
3699;DHT22;1865;50.918;7.092;2023-03-11T03:39:58;6.50;45.70
3699;DHT22;1865;50.918;7.092;2023-03-11T03:42:24;6.50;44.90
3699;DHT22;1865;50.918;7.092;2023-03-11T03:44:53;6.50;45.70
3699;DHT22;1865;50.918;7.092;2023-03-11T03:47:18;6.40;45.60
3699;DHT22;1865;50.918;7.092;2023-03-11T03:49:44;6.50;45.70
3699;DHT22;1865;50.918;7.092;2023-03-11T03:52:10;6.50;45.30
3699;DHT22;1865;50.918;7.092;2023-03-11T03:54:36;6.40;44.90
3699;DHT22;1865;50.918;7.092;2023-03-11T03:57:02;6.40;45.80
3699;DHT22;1865;50.918;7.092;2023-03-11T03:59:28;6.30;45.90
3699;DHT22;1865;50.918;7.092;2023-03-11T04:01:53;6.30;46.30
3699;DHT22;1865;50.918;7.092;2023-03-11T04:04:19;6.30;45.80
3699;DHT22;1865;50.918;7.092;2023-03-11T04:06:44;6.30;45.90
3699;DHT22;1865;50.918;7.092;2023-03-11T04:09:10;6.30;46.00
3699;DHT22;1865;50.918;7.092;2023-03-11T04:11:36;6.30;46.70
3699;DHT22;1865;50.918;7.092;2023-03-11T04:14:03;6.20;47.20
3699;DHT22;1865;50.918;7.092;2023-03-11T04:16:29;6.20;46.70
3699;DHT22;1865;50.918;7.092;2023-03-11T04:18:55;6.10;46.60
3699;DHT22;1865;50.918;7.092;2023-03-11T04:21:21;6.10;46.40
3699;DHT22;1865;50.918;7.092;2023-03-11T04:23:46;6.00;47.00
3699;DHT22;1865;50.918;7.092;2023-03-11T04:26:12;6.00;47.30
3699;DHT22;1865;50.918;7.092;2023-03-11T04:28:37;5.90;47.60
3699;DHT22;1865;50.918;7.092;2023-03-11T04:31:03;5.90;46.80
3699;DHT22;1865;50.918;7.092;2023-03-11T04:33:29;5.90;46.30
3699;DHT22;1865;50.918;7.092;2023-03-11T04:35:55;5.90;46.60
3699;DHT22;1865;50.918;7.092;2023-03-11T04:38:20;5.80;46.30
3699;DHT22;1865;50.918;7.092;2023-03-11T04:40:46;5.70;46.30
3699;DHT22;1865;50.918;7.092;2023-03-11T04:43:11;5.90;46.30
3699;DHT22;1865;50.918;7.092;2023-03-11T04:45:38;5.80;47.20
3699;DHT22;1865;50.918;7.092;2023-03-11T04:48:04;5.80;46.50
3699;DHT22;1865;50.918;7.092;2023-03-11T04:50:30;5.90;46.90
3699;DHT22;1865;50.918;7.092;2023-03-11T04:52:55;5.80;46.00
3699;DHT22;1865;50.918;7.092;2023-03-11T04:55:21;5.80;47.50
3699;DHT22;1865;50.918;7.092;2023-03-11T04:57:47;5.80;47.70
3699;DHT22;1865;50.918;7.092;2023-03-11T05:00:14;5.80;47.80
3699;DHT22;1865;50.918;7.092;2023-03-11T05:02:41;5.80;48.10
3699;DHT22;1865;50.918;7.092;2023-03-11T05:05:08;5.70;48.20
3699;DHT22;1865;50.918;7.092;2023-03-11T05:07:35;5.70;48.20
3699;DHT22;1865;50.918;7.092;2023-03-11T05:10:02;5.70;48.70
3699;DHT22;1865;50.918;7.092;2023-03-11T05:12:28;5.60;48.60
3699;DHT22;1865;50.918;7.092;2023-03-11T05:14:53;5.60;48.90
3699;DHT22;1865;50.918;7.092;2023-03-11T05:17:19;5.70;48.80
3699;DHT22;1865;50.918;7.092;2023-03-11T05:19:45;5.70;49.20
3699;DHT22;1865;50.918;7.092;2023-03-11T05:22:11;5.60;49.20
3699;DHT22;1865;50.918;7.092;2023-03-11T05:24:36;5.50;48.80
3699;DHT22;1865;50.918;7.092;2023-03-11T05:27:02;5.50;48.60
3699;DHT22;1865;50.918;7.092;2023-03-11T05:29:28;5.50;48.10
3699;DHT22;1865;50.918;7.092;2023-03-11T05:31:54;5.40;48.20
3699;DHT22;1865;50.918;7.092;2023-03-11T05:34:20;5.50;48.80
3699;DHT22;1865;50.918;7.092;2023-03-11T05:36:45;5.80;48.40
3699;DHT22;1865;50.918;7.092;2023-03-11T05:39:11;5.60;48.20
3699;DHT22;1865;50.918;7.092;2023-03-11T05:41:37;5.70;48.50
3699;DHT22;1865;50.918;7.092;2023-03-11T05:44:03;5.70;48.10
3699;DHT22;1865;50.918;7.092;2023-03-11T05:46:29;5.60;47.80
3699;DHT22;1865;50.918;7.092;2023-03-11T05:48:54;5.80;48.00
3699;DHT22;1865;50.918;7.092;2023-03-11T05:51:20;5.80;47.70
3699;DHT22;1865;50.918;7.092;2023-03-11T05:53:47;5.80;47.60
3699;DHT22;1865;50.918;7.092;2023-03-11T05:56:21;5.70;47.40
3699;DHT22;1865;50.918;7.092;2023-03-11T05:58:47;5.70;47.20
3699;DHT22;1865;50.918;7.092;2023-03-11T06:01:15;5.70;47.50
3699;DHT22;1865;50.918;7.092;2023-03-11T06:03:41;5.60;47.00
3699;DHT22;1865;50.918;7.092;2023-03-11T06:06:08;5.60;47.40
3699;DHT22;1865;50.918;7.092;2023-03-11T06:08:35;5.60;47.40
3699;DHT22;1865;50.918;7.092;2023-03-11T06:11:08;5.60;47.30
3699;DHT22;1865;50.918;7.092;2023-03-11T06:13:35;5.60;48.00
3699;DHT22;1865;50.918;7.092;2023-03-11T06:16:01;5.60;48.30
3699;DHT22;1865;50.918;7.092;2023-03-11T06:18:26;5.60;47.90
3699;DHT22;1865;50.918;7.092;2023-03-11T06:20:53;5.60;48.50
3699;DHT22;1865;50.918;7.092;2023-03-11T06:23:19;5.90;48.90
3699;DHT22;1865;50.918;7.092;2023-03-11T06:25:53;5.60;49.00
3699;DHT22;1865;50.918;7.092;2023-03-11T06:28:18;5.60;48.80
3699;DHT22;1865;50.918;7.092;2023-03-11T06:30:44;5.60;48.80
3699;DHT22;1865;50.918;7.092;2023-03-11T06:33:09;5.70;48.50
3699;DHT22;1865;50.918;7.092;2023-03-11T06:35:35;5.70;48.70
3699;DHT22;1865;50.918;7.092;2023-03-11T06:38:00;5.80;48.60
3699;DHT22;1865;50.918;7.092;2023-03-11T06:40:26;5.90;48.60
3699;DHT22;1865;50.918;7.092;2023-03-11T06:42:51;6.00;48.90
3699;DHT22;1865;50.918;7.092;2023-03-11T06:45:17;6.30;48.70
3699;DHT22;1865;50.918;7.092;2023-03-11T06:47:42;6.30;47.70
3699;DHT22;1865;50.918;7.092;2023-03-11T06:50:08;6.40;47.40
3699;DHT22;1865;50.918;7.092;2023-03-11T06:52:34;6.50;47.00
3699;DHT22;1865;50.918;7.092;2023-03-11T06:55:00;6.60;46.60
3699;DHT22;1865;50.918;7.092;2023-03-11T06:57:25;6.60;46.10
3699;DHT22;1865;50.918;7.092;2023-03-11T06:59:52;6.60;46.20
3699;DHT22;1865;50.918;7.092;2023-03-11T07:02:17;6.60;46.30
3699;DHT22;1865;50.918;7.092;2023-03-11T07:04:43;6.60;46.40
3699;DHT22;1865;50.918;7.092;2023-03-11T07:07:08;6.70;46.50
3699;DHT22;1865;50.918;7.092;2023-03-11T07:09:34;6.60;46.30
3699;DHT22;1865;50.918;7.092;2023-03-11T07:11:59;6.60;46.80
3699;DHT22;1865;50.918;7.092;2023-03-11T07:14:25;6.60;46.70
3699;DHT22;1865;50.918;7.092;2023-03-11T07:16:50;6.50;46.70
3699;DHT22;1865;50.918;7.092;2023-03-11T07:19:16;6.60;47.90
3699;DHT22;1865;50.918;7.092;2023-03-11T07:21:41;6.70;47.90
3699;DHT22;1865;50.918;7.092;2023-03-11T07:24:09;6.80;47.40
3699;DHT22;1865;50.918;7.092;2023-03-11T07:26:35;6.90;47.20
3699;DHT22;1865;50.918;7.092;2023-03-11T07:29:01;6.90;47.00
3699;DHT22;1865;50.918;7.092;2023-03-11T07:31:31;7.00;46.80
3699;DHT22;1865;50.918;7.092;2023-03-11T07:33:59;7.00;46.40
3699;DHT22;1865;50.918;7.092;2023-03-11T07:36:25;7.10;46.00
3699;DHT22;1865;50.918;7.092;2023-03-11T07:38:55;7.20;45.00
3699;DHT22;1865;50.918;7.092;2023-03-11T07:41:24;7.20;44.60
3699;DHT22;1865;50.918;7.092;2023-03-11T07:43:53;7.40;44.40
3699;DHT22;1865;50.918;7.092;2023-03-11T07:46:20;7.40;43.00
3699;DHT22;1865;50.918;7.092;2023-03-11T07:48:48;7.40;42.90
3699;DHT22;1865;50.918;7.092;2023-03-11T07:51:16;7.40;43.30
3699;DHT22;1865;50.918;7.092;2023-03-11T07:53:43;7.40;41.90
3699;DHT22;1865;50.918;7.092;2023-03-11T07:56:10;7.30;42.20
3699;DHT22;1865;50.918;7.092;2023-03-11T07:58:36;7.40;42.30
3699;DHT22;1865;50.918;7.092;2023-03-11T08:01:04;7.40;41.90
3699;DHT22;1865;50.918;7.092;2023-03-11T08:03:31;7.40;41.40
3699;DHT22;1865;50.918;7.092;2023-03-11T08:05:57;7.50;41.00
3699;DHT22;1865;50.918;7.092;2023-03-11T08:08:22;7.70;40.60
3699;DHT22;1865;50.918;7.092;2023-03-11T08:10:48;8.00;39.70
3699;DHT22;1865;50.918;7.092;2023-03-11T08:13:13;8.10;38.90
3699;DHT22;1865;50.918;7.092;2023-03-11T08:15:39;8.10;38.60
3699;DHT22;1865;50.918;7.092;2023-03-11T08:18:05;8.10;39.10
3699;DHT22;1865;50.918;7.092;2023-03-11T08:20:31;7.90;38.80
3699;DHT22;1865;50.918;7.092;2023-03-11T08:22:57;7.80;39.30
3699;DHT22;1865;50.918;7.092;2023-03-11T08:25:22;8.00;39.00
3699;DHT22;1865;50.918;7.092;2023-03-11T08:27:47;8.40;39.10
3699;DHT22;1865;50.918;7.092;2023-03-11T08:30:13;8.70;37.90
3699;DHT22;1865;50.918;7.092;2023-03-11T08:32:39;9.00;37.60
3699;DHT22;1865;50.918;7.092;2023-03-11T08:35:05;9.40;35.90
3699;DHT22;1865;50.918;7.092;2023-03-11T08:37:31;9.80;35.50
3699;DHT22;1865;50.918;7.092;2023-03-11T08:39:56;10.20;34.90
3699;DHT22;1865;50.918;7.092;2023-03-11T08:42:22;10.70;33.20
3699;DHT22;1865;50.918;7.092;2023-03-11T08:44:47;10.80;33.10
3699;DHT22;1865;50.918;7.092;2023-03-11T08:47:13;11.00;32.60
3699;DHT22;1865;50.918;7.092;2023-03-11T08:49:38;11.90;33.90
3699;DHT22;1865;50.918;7.092;2023-03-11T08:52:04;12.40;30.60
3699;DHT22;1865;50.918;7.092;2023-03-11T08:54:31;12.30;28.50
3699;DHT22;1865;50.918;7.092;2023-03-11T08:56:56;11.80;29.40
3699;DHT22;1865;50.918;7.092;2023-03-11T08:59:27;11.40;29.90
3699;DHT22;1865;50.918;7.092;2023-03-11T09:01:53;11.00;32.30
3699;DHT22;1865;50.918;7.092;2023-03-11T09:04:18;10.60;32.70
3699;DHT22;1865;50.918;7.092;2023-03-11T09:06:44;10.20;34.00
3699;DHT22;1865;50.918;7.092;2023-03-11T09:09:11;10.00;34.40
3699;DHT22;1865;50.918;7.092;2023-03-11T09:11:37;9.90;33.90
3699;DHT22;1865;50.918;7.092;2023-03-11T09:14:03;10.00;34.50
3699;DHT22;1865;50.918;7.092;2023-03-11T09:16:29;9.90;32.30
3699;DHT22;1865;50.918;7.092;2023-03-11T09:18:55;9.90;32.40
3699;DHT22;1865;50.918;7.092;2023-03-11T09:21:21;9.90;32.40
3699;DHT22;1865;50.918;7.092;2023-03-11T09:23:46;9.90;31.70
3699;DHT22;1865;50.918;7.092;2023-03-11T09:26:13;9.80;31.80
3699;DHT22;1865;50.918;7.092;2023-03-11T09:28:39;9.80;32.00
3699;DHT22;1865;50.918;7.092;2023-03-11T09:31:05;9.90;32.90
3699;DHT22;1865;50.918;7.092;2023-03-11T09:33:31;10.20;31.80
3699;DHT22;1865;50.918;7.092;2023-03-11T09:36:00;10.40;30.00
3699;DHT22;1865;50.918;7.092;2023-03-11T09:38:25;10.40;29.80
3699;DHT22;1865;50.918;7.092;2023-03-11T09:41:00;10.70;29.60
3699;DHT22;1865;50.918;7.092;2023-03-11T09:43:38;10.90;28.30
3699;DHT22;1865;50.918;7.092;2023-03-11T09:46:30;10.80;28.60
3699;DHT22;1865;50.918;7.092;2023-03-11T09:49:34;10.40;27.50
3699;DHT22;1865;50.918;7.092;2023-03-11T09:52:15;10.00;28.60
3699;DHT22;1865;50.918;7.092;2023-03-11T09:54:46;9.70;26.10
3699;DHT22;1865;50.918;7.092;2023-03-11T09:57:17;9.50;26.80
3699;DHT22;1865;50.918;7.092;2023-03-11T09:59:44;9.60;27.70
3699;DHT22;1865;50.918;7.092;2023-03-11T10:02:17;9.80;26.90
3699;DHT22;1865;50.918;7.092;2023-03-11T10:05:32;9.70;26.00
3699;DHT22;1865;50.918;7.092;2023-03-11T10:07:40;9.60;26.70
3699;DHT22;1865;50.918;7.092;2023-03-11T10:10:12;9.80;27.40
3699;DHT22;1865;50.918;7.092;2023-03-11T10:12:43;10.10;25.60
3699;DHT22;1865;50.918;7.092;2023-03-11T10:21:03;10.00;27.60
3699;DHT22;1865;50.918;7.092;2023-03-11T10:26:34;9.80;27.50
3699;DHT22;1865;50.918;7.092;2023-03-11T10:29:28;9.90;28.70
3699;DHT22;1865;50.918;7.092;2023-03-11T10:32:16;10.20;28.10
3699;DHT22;1865;50.918;7.092;2023-03-11T10:37:17;10.90;26.30
3699;DHT22;1865;50.918;7.092;2023-03-11T10:39:46;11.10;24.70
3699;DHT22;1865;50.918;7.092;2023-03-11T10:42:24;11.10;24.60
3699;DHT22;1865;50.918;7.092;2023-03-11T10:44:51;11.40;26.00
3699;DHT22;1865;50.918;7.092;2023-03-11T10:47:24;11.70;26.40
3699;DHT22;1865;50.918;7.092;2023-03-11T10:49:50;11.80;25.00
3699;DHT22;1865;50.918;7.092;2023-03-11T10:52:17;11.70;25.70
3699;DHT22;1865;50.918;7.092;2023-03-11T10:54:48;11.60;25.30
3699;DHT22;1865;50.918;7.092;2023-03-11T10:57:27;11.10;26.10
3699;DHT22;1865;50.918;7.092;2023-03-11T10:59:58;10.80;27.20
3699;DHT22;1865;50.918;7.092;2023-03-11T11:02:32;10.70;25.80
3699;DHT22;1865;50.918;7.092;2023-03-11T11:07:40;10.50;26.40
3699;DHT22;1865;50.918;7.092;2023-03-11T11:10:34;10.50;25.90
3699;DHT22;1865;50.918;7.092;2023-03-11T11:13:04;10.70;25.60
3699;DHT22;1865;50.918;7.092;2023-03-11T11:15:55;10.60;25.00
3699;DHT22;1865;50.918;7.092;2023-03-11T11:18:31;10.80;25.50
3699;DHT22;1865;50.918;7.092;2023-03-11T11:21:10;10.90;23.60
3699;DHT22;1865;50.918;7.092;2023-03-11T11:23:41;11.10;24.30
3699;DHT22;1865;50.918;7.092;2023-03-11T11:26:24;11.10;25.00
3699;DHT22;1865;50.918;7.092;2023-03-11T11:31:38;11.20;23.90
3699;DHT22;1865;50.918;7.092;2023-03-11T11:34:26;11.10;24.00
3699;DHT22;1865;50.918;7.092;2023-03-11T11:36:52;11.30;25.40
3699;DHT22;1865;50.918;7.092;2023-03-11T11:39:19;11.50;24.80
3699;DHT22;1865;50.918;7.092;2023-03-11T11:41:47;11.60;25.60
3699;DHT22;1865;50.918;7.092;2023-03-11T11:44:17;11.60;25.10
3699;DHT22;1865;50.918;7.092;2023-03-11T11:46:48;11.50;24.10
3699;DHT22;1865;50.918;7.092;2023-03-11T11:54:35;11.10;23.70
3699;DHT22;1865;50.918;7.092;2023-03-11T11:57:17;11.00;26.00
3699;DHT22;1865;50.918;7.092;2023-03-11T11:59:44;10.90;25.60
3699;DHT22;1865;50.918;7.092;2023-03-11T12:02:37;11.00;24.80
3699;DHT22;1865;50.918;7.092;2023-03-11T12:10:41;11.40;26.10
3699;DHT22;1865;50.918;7.092;2023-03-11T12:13:40;11.60;26.20
3699;DHT22;1865;50.918;7.092;2023-03-11T12:16:42;11.60;26.30
3699;DHT22;1865;50.918;7.092;2023-03-11T12:19:43;11.40;25.20
3699;DHT22;1865;50.918;7.092;2023-03-11T12:25:00;11.40;25.60
3699;DHT22;1865;50.918;7.092;2023-03-11T12:27:43;11.60;25.10
3699;DHT22;1865;50.918;7.092;2023-03-11T12:30:28;12.10;26.40
3699;DHT22;1865;50.918;7.092;2023-03-11T12:33:04;13.00;25.20
3699;DHT22;1865;50.918;7.092;2023-03-11T12:35:34;13.30;22.70
3699;DHT22;1865;50.918;7.092;2023-03-11T12:40:58;13.00;23.40
3699;DHT22;1865;50.918;7.092;2023-03-11T12:45:58;12.60;22.90
3699;DHT22;1865;50.918;7.092;2023-03-11T12:50:49;12.10;22.90
3699;DHT22;1865;50.918;7.092;2023-03-11T12:53:16;11.90;23.10
3699;DHT22;1865;50.918;7.092;2023-03-11T12:55:55;11.80;22.60
3699;DHT22;1865;50.918;7.092;2023-03-11T13:07:28;11.50;22.20
3699;DHT22;1865;50.918;7.092;2023-03-11T13:10:17;11.80;22.50
3699;DHT22;1865;50.918;7.092;2023-03-11T13:12:46;12.10;23.00
3699;DHT22;1865;50.918;7.092;2023-03-11T13:18:00;12.90;23.40
3699;DHT22;1865;50.918;7.092;2023-03-11T13:26:15;12.90;22.40
3699;DHT22;1865;50.918;7.092;2023-03-11T13:29:01;12.70;23.10
3699;DHT22;1865;50.918;7.092;2023-03-11T13:34:24;12.80;23.50
3699;DHT22;1865;50.918;7.092;2023-03-11T13:37:14;12.90;22.40
3699;DHT22;1865;50.918;7.092;2023-03-11T13:42:50;12.50;23.80
3699;DHT22;1865;50.918;7.092;2023-03-11T13:45:28;12.60;21.30
3699;DHT22;1865;50.918;7.092;2023-03-11T13:48:39;12.90;22.90
3699;DHT22;1865;50.918;7.092;2023-03-11T13:51:14;13.50;22.20
3699;DHT22;1865;50.918;7.092;2023-03-11T13:53:44;13.90;21.20
3699;DHT22;1865;50.918;7.092;2023-03-11T13:56:21;14.40;21.20
3699;DHT22;1865;50.918;7.092;2023-03-11T13:58:48;15.70;20.40
3699;DHT22;1865;50.918;7.092;2023-03-11T14:01:15;16.60;20.00
3699;DHT22;1865;50.918;7.092;2023-03-11T14:03:43;17.00;19.80
3699;DHT22;1865;50.918;7.092;2023-03-11T14:06:18;17.00;18.30
3699;DHT22;1865;50.918;7.092;2023-03-11T14:08:55;16.30;17.60
3699;DHT22;1865;50.918;7.092;2023-03-11T14:11:25;15.50;18.10
3699;DHT22;1865;50.918;7.092;2023-03-11T14:13:52;15.10;19.30
3699;DHT22;1865;50.918;7.092;2023-03-11T14:16:38;14.80;20.00
3699;DHT22;1865;50.918;7.092;2023-03-11T14:19:18;14.60;20.00
3699;DHT22;1865;50.918;7.092;2023-03-11T14:21:45;13.90;19.00
3699;DHT22;1865;50.918;7.092;2023-03-11T14:24:16;13.70;21.10
3699;DHT22;1865;50.918;7.092;2023-03-11T14:26:42;13.50;20.40
3699;DHT22;1865;50.918;7.092;2023-03-11T14:29:11;13.40;21.20
3699;DHT22;1865;50.918;7.092;2023-03-11T14:31:41;13.20;19.70
3699;DHT22;1865;50.918;7.092;2023-03-11T14:34:18;13.10;20.40
3699;DHT22;1865;50.918;7.092;2023-03-11T14:36:47;13.10;20.80
3699;DHT22;1865;50.918;7.092;2023-03-11T14:39:35;13.00;21.50
3699;DHT22;1865;50.918;7.092;2023-03-11T14:47:42;13.00;20.70
3699;DHT22;1865;50.918;7.092;2023-03-11T14:50:14;13.10;21.10
3699;DHT22;1865;50.918;7.092;2023-03-11T14:52:44;13.10;20.60
3699;DHT22;1865;50.918;7.092;2023-03-11T14:55:22;13.40;21.20
3699;DHT22;1865;50.918;7.092;2023-03-11T14:57:54;13.30;22.70
3699;DHT22;1865;50.918;7.092;2023-03-11T15:00:24;13.10;21.80
3699;DHT22;1865;50.918;7.092;2023-03-11T15:05:42;12.80;20.70
3699;DHT22;1865;50.918;7.092;2023-03-11T15:08:09;12.50;21.20
3699;DHT22;1865;50.918;7.092;2023-03-11T15:10:35;12.50;22.00
3699;DHT22;1865;50.918;7.092;2023-03-11T15:13:14;12.40;21.40
3699;DHT22;1865;50.918;7.092;2023-03-11T15:15:40;12.40;21.30
3699;DHT22;1865;50.918;7.092;2023-03-11T15:18:22;12.40;20.80
3699;DHT22;1865;50.918;7.092;2023-03-11T15:21:14;12.50;21.20
3699;DHT22;1865;50.918;7.092;2023-03-11T15:23:48;12.40;21.10
3699;DHT22;1865;50.918;7.092;2023-03-11T15:26:23;12.40;22.00
3699;DHT22;1865;50.918;7.092;2023-03-11T15:28:57;12.50;21.60
3699;DHT22;1865;50.918;7.092;2023-03-11T15:31:27;12.50;20.40
3699;DHT22;1865;50.918;7.092;2023-03-11T15:34:07;12.30;21.80
3699;DHT22;1865;50.918;7.092;2023-03-11T15:36:35;11.90;21.00
3699;DHT22;1865;50.918;7.092;2023-03-11T15:39:18;11.80;21.70
3699;DHT22;1865;50.918;7.092;2023-03-11T15:41:47;11.80;22.20
3699;DHT22;1865;50.918;7.092;2023-03-11T15:47:17;11.70;22.90
3699;DHT22;1865;50.918;7.092;2023-03-11T15:49:44;11.60;22.90
3699;DHT22;1865;50.918;7.092;2023-03-11T15:52:10;11.60;23.60
3699;DHT22;1865;50.918;7.092;2023-03-11T15:54:36;11.50;22.50
3699;DHT22;1865;50.918;7.092;2023-03-11T15:57:05;11.50;24.00
3699;DHT22;1865;50.918;7.092;2023-03-11T15:59:32;11.40;24.50
3699;DHT22;1865;50.918;7.092;2023-03-11T16:01:58;11.40;25.20
3699;DHT22;1865;50.918;7.092;2023-03-11T16:04:24;11.30;26.00
3699;DHT22;1865;50.918;7.092;2023-03-11T16:06:50;11.30;24.10
3699;DHT22;1865;50.918;7.092;2023-03-11T16:09:16;11.20;24.40
3699;DHT22;1865;50.918;7.092;2023-03-11T16:11:42;11.10;24.00
3699;DHT22;1865;50.918;7.092;2023-03-11T16:14:13;11.10;24.60
3699;DHT22;1865;50.918;7.092;2023-03-11T16:16:40;11.10;25.50
3699;DHT22;1865;50.918;7.092;2023-03-11T16:19:05;11.30;27.60
3699;DHT22;1865;50.918;7.092;2023-03-11T16:21:40;11.40;26.40
3699;DHT22;1865;50.918;7.092;2023-03-11T16:24:07;11.40;25.20
3699;DHT22;1865;50.918;7.092;2023-03-11T16:26:34;11.60;27.90
3699;DHT22;1865;50.918;7.092;2023-03-11T16:29:00;11.70;27.70
3699;DHT22;1865;50.918;7.092;2023-03-11T16:31:25;11.80;26.70
3699;DHT22;1865;50.918;7.092;2023-03-11T16:33:52;11.80;24.60
3699;DHT22;1865;50.918;7.092;2023-03-11T16:36:18;11.70;25.60
3699;DHT22;1865;50.918;7.092;2023-03-11T16:38:47;11.70;25.70
3699;DHT22;1865;50.918;7.092;2023-03-11T16:41:13;11.50;24.80
3699;DHT22;1865;50.918;7.092;2023-03-11T16:43:39;11.50;25.20
3699;DHT22;1865;50.918;7.092;2023-03-11T16:46:05;11.40;23.40
3699;DHT22;1865;50.918;7.092;2023-03-11T16:48:31;11.40;25.90
3699;DHT22;1865;50.918;7.092;2023-03-11T16:50:56;11.20;26.70
3699;DHT22;1865;50.918;7.092;2023-03-11T16:53:22;11.20;28.10
3699;DHT22;1865;50.918;7.092;2023-03-11T16:55:49;11.10;30.20
3699;DHT22;1865;50.918;7.092;2023-03-11T16:58:15;11.00;29.50
3699;DHT22;1865;50.918;7.092;2023-03-11T17:00:40;11.00;29.10
3699;DHT22;1865;50.918;7.092;2023-03-11T17:03:08;10.90;26.30
3699;DHT22;1865;50.918;7.092;2023-03-11T17:05:35;10.90;30.00
3699;DHT22;1865;50.918;7.092;2023-03-11T17:08:00;10.80;32.30
3699;DHT22;1865;50.918;7.092;2023-03-11T17:10:34;10.60;28.90
3699;DHT22;1865;50.918;7.092;2023-03-11T17:13:00;10.70;31.20
3699;DHT22;1865;50.918;7.092;2023-03-11T17:15:25;10.60;32.20
3699;DHT22;1865;50.918;7.092;2023-03-11T17:17:51;10.40;32.10
3699;DHT22;1865;50.918;7.092;2023-03-11T17:20:16;10.30;32.10
3699;DHT22;1865;50.918;7.092;2023-03-11T17:22:42;10.20;33.90
3699;DHT22;1865;50.918;7.092;2023-03-11T17:25:08;10.10;32.00
3699;DHT22;1865;50.918;7.092;2023-03-11T17:27:33;10.00;31.80
3699;DHT22;1865;50.918;7.092;2023-03-11T17:30:03;9.80;31.90
3699;DHT22;1865;50.918;7.092;2023-03-11T17:32:29;9.80;32.50
3699;DHT22;1865;50.918;7.092;2023-03-11T17:34:55;9.70;33.90
3699;DHT22;1865;50.918;7.092;2023-03-11T17:37:21;9.50;33.60
3699;DHT22;1865;50.918;7.092;2023-03-11T17:39:46;9.50;33.80
3699;DHT22;1865;50.918;7.092;2023-03-11T17:42:12;9.40;35.10